Time;durP1;ratioP1;P1;durP2;ratioP2;P2;SDS_P1;SDS_P2;PMS_P1;PMS_P2;Temp;Humidity;BMP_temperature;BMP_pressure;BME280_temperature;BME280_humidity;BME280_pressure;Samples;Min_cycle;Max_cycle;Signal;HPM_P1;HPM_P2
2022/09/13 00:00:15;;;;;;;0.22;0.22;;;;;;;27.89;nan;98894.19;5116360;28;20415;-57
2022/09/13 00:02:42;;;;;;;0.38;0.22;;;;;;;27.88;nan;98896.22;5115997;28;20043;-59
2022/09/13 00:05:08;;;;;;;0.45;0.30;;;;;;;27.90;nan;98888.13;5116089;28;20157;-59
2022/09/13 00:07:34;;;;;;;0.30;0.30;;;;;;;27.90;nan;98892.97;5115675;28;20564;-57
2022/09/13 00:10:02;;;;;;;0.22;0.20;;;;;;;27.91;nan;98892.53;5115823;28;20436;-58
2022/09/13 00:12:28;;;;;;;0.50;0.40;;;;;;;27.91;nan;98898.16;5115691;28;20058;-59
2022/09/13 00:14:53;;;;;;;0.30;0.30;;;;;;;27.89;nan;98895.00;5116074;28;20048;-58
2022/09/13 00:17:18;;;;;;;0.28;0.28;;;;;;;27.88;nan;98887.00;5116084;28;20035;-59
2022/09/13 00:19:44;;;;;;;0.35;0.30;;;;;;;27.88;nan;98884.97;5115581;28;20376;-56
2022/09/13 00:22:09;;;;;;;0.28;0.25;;;;;;;27.88;nan;98884.97;5116134;28;20047;-57
2022/09/13 00:24:36;;;;;;;0.52;0.30;;;;;;;27.87;nan;98883.41;5115651;28;20102;-57
2022/09/13 00:27:01;;;;;;;0.28;0.22;;;;;;;27.87;nan;98886.22;5115762;28;20079;-56
2022/09/13 00:29:27;;;;;;;0.28;0.28;;;;;;;27.89;nan;98886.56;5115657;28;20411;-59
2022/09/13 00:31:53;;;;;;;0.35;0.30;;;;;;;27.90;nan;98884.53;5115575;28;20411;-57
2022/09/13 00:34:18;;;;;;;0.32;0.30;;;;;;;27.86;nan;98881.81;5115627;28;20054;-56
2022/09/13 00:36:44;;;;;;;0.20;0.20;;;;;;;27.88;nan;98879.34;5101085;28;20036;-57
2022/09/13 00:39:11;;;;;;;0.30;0.30;;;;;;;27.88;nan;98872.94;5114309;28;20050;-58
2022/09/13 00:41:37;;;;;;;0.40;0.30;;;;;;;27.87;nan;98871.38;5111916;28;20055;-59
2022/09/13 00:44:24;;;;;;;0.30;0.30;;;;;;;27.87;nan;98877.00;5112347;28;20427;-59
2022/09/13 00:46:51;;;;;;;0.32;0.32;;;;;;;27.85;nan;98868.97;5111929;28;20569;-59
2022/09/13 00:49:27;;;;;;;0.47;0.38;;;;;;;27.85;nan;98868.97;5092807;28;20139;-57
2022/09/13 00:52:01;;;;;;;0.22;0.22;;;;;;;27.85;nan;98873.81;5111820;28;20039;-59
2022/09/13 00:54:32;;;;;;;0.20;0.20;;;;;;;27.87;nan;98865.75;5111945;28;20448;-56
2022/09/13 00:57:02;;;;;;;0.30;0.30;;;;;;;27.84;nan;98873.00;5112097;28;20084;-56
2022/09/13 00:59:34;;;;;;;0.50;0.40;;;;;;;27.84;nan;98863.78;5112167;28;20036;-59
2022/09/13 01:02:00;;;;;;;0.20;0.20;;;;;;;27.84;nan;98873.00;5111968;28;20429;-59
2022/09/13 01:04:29;;;;;;;0.47;0.30;;;;;;;27.84;nan;98866.59;5111976;28;20434;-59
2022/09/13 01:06:59;;;;;;;0.50;0.40;;;;;;;27.83;nan;98865.03;5111694;28;20137;-56
2022/09/13 01:09:26;;;;;;;0.40;0.35;;;;;;;27.84;nan;98864.56;5111832;28;20053;-56
2022/09/13 01:12:03;;;;;;;0.30;0.30;;;;;;;27.82;nan;98866.25;5111748;28;20105;-59
2022/09/13 01:14:30;;;;;;;0.25;0.20;;;;;;;27.84;nan;98873.00;5111912;28;20379;-56
2022/09/13 01:16:55;;;;;;;0.30;0.22;;;;;;;27.84;nan;98870.19;5111518;28;20840;-59
2022/09/13 01:19:21;;;;;;;0.20;0.20;;;;;;;27.83;nan;98862.22;5111423;28;20040;-56
2022/09/13 01:21:55;;;;;;;0.40;0.22;;;;;;;27.81;nan;98864.69;5111848;28;20449;-59
2022/09/13 01:24:29;;;;;;;0.20;0.20;;;;;;;27.82;nan;98858.59;5111977;28;20085;-57
2022/09/13 01:27:32;;;;;;;0.22;0.22;;;;;;;27.82;nan;98855.81;5097504;28;20055;-57
2022/09/13 01:30:22;;;;;;;0.55;0.38;;;;;;;27.79;nan;98851.06;5061093;28;20048;-59
2022/09/13 01:33:00;;;;;;;0.20;0.20;;;;;;;27.82;nan;98846.56;5111612;28;20039;-57
2022/09/13 01:35:46;;;;;;;0.47;0.40;;;;;;;27.80;nan;98849.03;5091135;28;20040;-58
2022/09/13 01:38:12;;;;;;;0.25;0.25;;;;;;;27.81;nan;98850.63;5107056;28;20101;-57
2022/09/13 01:41:16;;;;;;;0.30;0.20;;;;;;;27.80;nan;98855.44;5097920;28;20044;-59
2022/09/13 01:44:08;;;;;;;0.20;0.20;;;;;;;27.79;nan;98856.69;5066632;28;20282;-57
2022/09/13 01:46:48;;;;;;;0.35;0.20;;;;;;;27.81;nan;98853.44;5089450;28;20078;-56
2022/09/13 01:49:16;;;;;;;0.57;0.40;;;;;;;27.81;nan;98848.59;5091167;28;20052;-56
2022/09/13 01:52:08;;;;;;;0.40;0.30;;;;;;;27.80;nan;98840.63;5089210;28;20052;-56
2022/09/13 01:54:39;;;;;;;0.20;0.20;;;;;;;27.82;nan;98846.56;5082346;28;20051;-57
2022/09/13 01:57:31;;;;;;;0.47;0.40;;;;;;;27.81;nan;98845.00;5090685;28;20048;-59
2022/09/13 02:00:04;;;;;;;0.40;0.30;;;;;;;27.79;nan;98848.25;5090629;28;20085;-59
2022/09/13 02:02:49;;;;;;;0.30;0.20;;;;;;;27.79;nan;98845.44;5090666;28;20500;-59
2022/09/13 02:05:42;;;;;;;0.50;0.38;;;;;;;27.79;nan;98844.63;5077412;28;20075;-59
2022/09/13 02:08:14;;;;;;;0.28;0.25;;;;;;;27.77;nan;98839.44;5088127;28;20100;-59
2022/09/13 02:10:45;;;;;;;0.30;0.30;;;;;;;27.77;nan;98847.88;5090202;28;20535;-57
2022/09/13 02:13:16;;;;;;;0.40;0.30;;;;;;;27.76;nan;98846.31;5090308;28;20500;-57
2022/09/13 02:15:53;;;;;;;0.90;0.35;;;;;;;27.78;nan;98852.25;5090041;28;20052;-57
2022/09/13 02:18:26;;;;;;;0.20;0.20;;;;;;;27.76;nan;98842.69;5076318;28;20044;-56
2022/09/13 02:20:54;;;;;;;0.60;0.40;;;;;;;27.76;nan;98854.72;5090585;28;20036;-57
2022/09/13 02:23:33;;;;;;;0.30;0.30;;;;;;;27.76;nan;98848.31;5090216;28;20047;-57
2022/09/13 02:26:02;;;;;;;0.35;0.30;;;;;;;27.77;nan;98847.09;5079023;28;20045;-56
2022/09/13 02:28:32;;;;;;;0.28;0.28;;;;;;;27.76;nan;98848.31;5087591;28;20226;-57
2022/09/13 02:31:01;;;;;;;0.50;0.40;;;;;;;27.75;nan;98841.13;5090344;28;20052;-59
2022/09/13 02:33:36;;;;;;;0.38;0.25;;;;;;;27.74;nan;98845.16;5090022;28;20098;-59
2022/09/13 02:36:07;;;;;;;0.30;0.30;;;;;;;27.74;nan;98845.16;5090130;28;20036;-57
2022/09/13 02:38:39;;;;;;;0.30;0.30;;;;;;;27.75;nan;98844.72;5090060;28;20052;-59
2022/09/13 02:41:45;;;;;;;0.28;0.28;;;;;;;27.75;nan;98836.28;5090194;28;20534;-59
2022/09/13 02:44:16;;;;;;;0.30;0.30;;;;;;;27.75;nan;98839.09;4994256;28;20046;-59
2022/09/13 02:46:49;;;;;;;0.38;0.30;;;;;;;27.75;nan;98841.91;5007822;28;20655;-57
2022/09/13 02:49:41;;;;;;;0.20;0.20;;;;;;;27.74;nan;98842.34;5007772;28;20140;-56
2022/09/13 02:52:15;;;;;;;0.22;0.22;;;;;;;27.74;nan;98840.34;5007671;28;20510;-59
2022/09/13 02:55:08;;;;;;;0.52;0.30;;;;;;;27.75;nan;98833.47;5007689;28;20164;-59
2022/09/13 02:57:43;;;;;;;0.37;0.30;;;;;;;27.72;nan;98828.75;5007455;28;20429;-59
2022/09/13 03:00:09;;;;;;;0.28;0.28;;;;;;;27.73;nan;98830.31;4991329;28;20076;-57
2022/09/13 03:02:38;;;;;;;0.43;0.32;;;;;;;27.73;nan;98832.34;5006936;28;20042;-56
2022/09/13 03:05:04;;;;;;;0.30;0.30;;;;;;;27.72;nan;98842.78;5007581;28;20041;-57
2022/09/13 03:07:29;;;;;;;0.40;0.30;;;;;;;27.70;nan;98829.16;5007136;28;20085;-56
2022/09/13 03:10:04;;;;;;;0.20;0.20;;;;;;;27.71;nan;98821.53;5007644;28;20042;-56
2022/09/13 03:12:35;;;;;;;0.30;0.30;;;;;;;27.71;nan;98818.72;5007251;28;20437;-59
2022/09/13 03:15:13;;;;;;;0.20;0.20;;;;;;;27.69;nan;98816.34;5007585;28;20057;-56
2022/09/13 03:17:54;;;;;;;0.20;0.20;;;;;;;27.70;nan;98814.31;5032851;28;20093;-56
2022/09/13 03:20:58;;;;;;;0.30;0.30;;;;;;;27.69;nan;98815.56;5089630;28;20060;-57
2022/09/13 03:23:37;;;;;;;0.20;0.10;;;;;;;27.68;nan;98808.34;5077526;28;20036;-56
2022/09/13 03:26:30;;;;;;;0.63;0.40;;;;;;;27.68;nan;98816.78;5070059;28;20048;-59
2022/09/13 03:29:32;;;;;;;0.63;0.40;;;;;;;27.69;nan;98818.38;5087655;28;20044;-56
2022/09/13 03:32:19;;;;;;;0.65;0.40;;;;;;;27.69;nan;98815.56;5089318;28;20642;-56
2022/09/13 03:34:58;;;;;;;0.20;0.20;;;;;;;27.67;nan;98807.56;5086406;28;20119;-57
2022/09/13 03:37:52;;;;;;;0.20;0.20;;;;;;;27.67;nan;98806.75;5088996;28;20028;-59
2022/09/13 03:40:45;;;;;;;0.25;0.20;;;;;;;27.66;nan;98810.78;5089114;28;20135;-57
2022/09/13 03:43:21;;;;;;;0.40;0.32;;;;;;;27.67;nan;98809.56;5089238;28;20066;-58
2022/09/13 03:45:54;;;;;;;0.30;0.30;;;;;;;27.66;nan;98822.81;5088825;28;20499;-59
2022/09/13 03:48:21;;;;;;;0.30;0.22;;;;;;;27.66;nan;98816.41;5089048;28;20102;-59
2022/09/13 03:50:48;;;;;;;0.70;0.22;;;;;;;27.67;nan;98818.81;5089108;28;20040;-58
2022/09/13 03:53:22;;;;;;;0.60;0.30;;;;;;;27.67;nan;98823.59;5089190;28;20040;-59
2022/09/13 03:55:47;;;;;;;0.30;0.30;;;;;;;27.68;nan;98822.41;5089005;28;20044;-56
2022/09/13 03:58:16;;;;;;;0.10;0.10;;;;;;;27.65;nan;98828.88;5089225;28;20155;-56
2022/09/13 04:00:41;;;;;;;0.30;0.30;;;;;;;27.63;nan;98814.44;5088951;28;20119;-59
2022/09/13 04:03:08;;;;;;;0.30;0.22;;;;;;;27.68;nan;98816.78;5088953;28;20059;-59
2022/09/13 04:05:33;;;;;;;0.30;0.30;;;;;;;27.67;nan;98827.22;5089060;28;20059;-59
2022/09/13 04:08:00;;;;;;;0.22;0.22;;;;;;;27.67;nan;98821.63;5088657;28;20032;-59
2022/09/13 04:10:26;;;;;;;0.30;0.30;;;;;;;27.64;nan;98816.81;5088854;28;20496;-59
2022/09/13 04:12:53;;;;;;;0.20;0.20;;;;;;;27.67;nan;98817.97;5088553;28;20134;-58
2022/09/13 04:15:20;;;;;;;0.20;0.20;;;;;;;27.63;nan;98808.84;5090525;28;20095;-56
2022/09/13 04:17:46;;;;;;;0.25;0.25;;;;;;;27.62;nan;98810.06;5077690;28;20044;-56
2022/09/13 04:20:12;;;;;;;0.38;0.30;;;;;;;27.63;nan;98806.03;5092073;28;20492;-59
2022/09/13 04:22:37;;;;;;;0.25;0.20;;;;;;;27.65;nan;98804.38;5092249;28;20082;-59
2022/09/13 04:25:03;;;;;;;0.30;0.30;;;;;;;27.66;nan;98783.47;5092212;28;20025;-56
2022/09/13 04:27:28;;;;;;;0.30;0.30;;;;;;;27.67;nan;98773.03;5092026;28;20062;-56
2022/09/13 04:29:53;;;;;;;0.38;0.30;;;;;;;27.64;nan;98768.25;5091935;28;20035;-56
2022/09/13 04:32:19;;;;;;;0.55;0.25;;;;;;;27.66;nan;98765.84;5092129;28;20135;-57
2022/09/13 04:34:46;;;;;;;0.65;0.30;;;;;;;27.67;nan;98756.16;5091704;28;20040;-59
2022/09/13 04:37:12;;;;;;;0.30;0.30;;;;;;;27.66;nan;98749.75;5092072;28;20579;-56
2022/09/13 04:39:37;;;;;;;0.52;0.40;;;;;;;27.69;nan;98739.69;5092206;28;20131;-58
2022/09/13 04:42:03;;;;;;;0.22;0.20;;;;;;;27.69;nan;98736.88;5091749;28;20040;-56
2022/09/13 04:44:29;;;;;;;0.30;0.30;;;;;;;27.72;nan;98747.25;5091776;28;20115;-56
2022/09/13 04:46:54;;;;;;;0.40;0.40;;;;;;;27.75;nan;98756.81;5091775;28;20051;-56
2022/09/13 04:49:20;;;;;;;0.28;0.28;;;;;;;27.76;nan;98756.38;5091732;28;20560;-56
2022/09/13 04:51:47;;;;;;;0.20;0.20;;;;;;;27.77;nan;98755.13;5091694;28;20056;-56
2022/09/13 04:54:12;;;;;;;0.75;0.30;;;;;;;27.76;nan;98762.00;5091520;28;20086;-59
2022/09/13 04:56:37;;;;;;;0.40;0.30;;;;;;;27.77;nan;98759.97;5091932;28;20075;-56
2022/09/13 04:59:03;;;;;;;1.20;0.20;;;;;;;27.79;nan;98769.56;5091575;28;20051;-59
2022/09/13 05:01:29;;;;;;;0.20;0.20;;;;;;;27.81;nan;98769.13;5086056;28;20055;-56
2022/09/13 05:03:54;;;;;;;0.30;0.30;;;;;;;27.83;nan;98766.66;5091482;28;20038;-58
2022/09/13 05:06:20;;;;;;;0.22;0.22;;;;;;;27.82;nan;98774.28;5091316;28;20052;-56
2022/09/13 05:08:53;;;;;;;0.30;0.20;;;;;;;27.86;nan;98779.81;5091175;28;20039;-56
2022/09/13 05:11:23;;;;;;;0.30;0.30;;;;;;;27.87;nan;98776.59;5091241;28;20044;-57
2022/09/13 05:13:54;;;;;;;1.48;0.45;;;;;;;27.88;nan;98778.16;5091321;28;20063;-56
2022/09/13 05:16:20;;;;;;;0.95;0.40;;;;;;;27.89;nan;98782.56;5087416;28;20504;-57
2022/09/13 05:18:46;;;;;;;27.58;1.65;;;;;;;27.89;nan;98788.19;5081189;28;20036;-60
2022/09/13 05:21:11;;;;;;;30.50;2.55;;;;;;;27.87;nan;98785.03;5091330;28;20098;-59
2022/09/13 05:23:37;;;;;;;29.90;1.50;;;;;;;27.88;nan;98792.22;5091143;28;20044;-59
2022/09/13 05:26:05;;;;;;;21.73;1.45;;;;;;;27.92;nan;98792.13;5090822;28;20101;-56
2022/09/13 05:28:33;;;;;;;18.30;1.20;;;;;;;27.92;nan;98801.34;5091303;28;20442;-56
2022/09/13 05:31:01;;;;;;;22.23;1.42;;;;;;;27.94;nan;98792.50;5091259;28;20424;-56
2022/09/13 05:33:29;;;;;;;24.25;1.52;;;;;;;27.91;nan;98776.50;5091027;28;20067;-59
2022/09/13 05:35:54;;;;;;;12.10;1.13;;;;;;;27.94;nan;98778.44;5091010;28;20127;-56
2022/09/13 05:38:21;;;;;;;15.63;1.05;;;;;;;27.91;nan;98776.50;5090747;28;20135;-58
2022/09/13 05:40:47;;;;;;;14.50;1.08;;;;;;;27.93;nan;98772.03;5091076;28;20044;-59
2022/09/13 05:43:13;;;;;;;16.85;1.20;;;;;;;27.94;nan;98765.16;5090832;28;20048;-60
2022/09/13 05:45:39;;;;;;;11.35;0.90;;;;;;;27.94;nan;98759.56;5090814;28;20055;-56
2022/09/13 05:48:04;;;;;;;15.63;1.00;;;;;;;27.95;nan;98755.50;5090918;28;20507;-59
2022/09/13 05:50:29;;;;;;;15.20;1.00;;;;;;;27.95;nan;98763.94;5090640;28;20040;-59
2022/09/13 05:52:56;;;;;;;9.07;0.80;;;;;;;27.96;nan;98785.19;5090686;28;20511;-58
2022/09/13 05:55:22;;;;;;;6.63;0.75;;;;;;;27.98;nan;98779.13;5090790;28;20484;-59
2022/09/13 05:57:48;;;;;;;5.10;0.70;;;;;;;27.96;nan;98773.94;5090775;28;20536;-59
2022/09/13 06:00:14;;;;;;;4.10;0.70;;;;;;;27.98;nan;98770.69;5090697;28;20503;-56
2022/09/13 06:02:40;;;;;;;7.05;0.88;;;;;;;27.88;nan;98785.81;5089558;28;20125;-59
2022/09/13 06:05:09;;;;;;;4.75;0.60;;;;;;;27.71;nan;98779.38;5090794;28;20028;-56
2022/09/13 06:07:35;;;;;;;2.53;0.57;;;;;;;27.64;nan;98773.88;5090504;28;20181;-56
2022/09/13 06:10:01;;;;;;;4.30;0.70;;;;;;;27.58;nan;98773.63;5090561;28;20079;-59
2022/09/13 06:12:27;;;;;;;2.75;0.60;;;;;;;27.55;nan;98788.53;5089178;28;20476;-56
2022/09/13 06:14:52;;;;;;;3.10;0.65;;;;;;;27.57;nan;98779.66;5090559;28;20589;-56
2022/09/13 06:17:17;;;;;;;2.15;0.50;;;;;;;27.54;nan;98783.38;5084170;28;20115;-56
2022/09/13 06:19:43;;;;;;;2.65;0.60;;;;;;;27.53;nan;98784.59;5090468;28;20032;-56
2022/09/13 06:22:08;;;;;;;4.75;0.70;;;;;;;27.52;nan;98780.22;5090241;28;20535;-55
2022/09/13 06:24:36;;;;;;;4.07;0.75;;;;;;;27.50;nan;98777.03;5090499;28;20442;-56
2022/09/13 06:27:02;;;;;;;1.63;0.50;;;;;;;27.51;nan;98787.84;5090184;28;20040;-58
2022/09/13 06:29:27;;;;;;;2.47;0.40;;;;;;;27.52;nan;98783.81;5090322;28;20455;-56
2022/09/13 06:31:53;;;;;;;2.83;0.60;;;;;;;27.51;nan;98781.44;5090227;28;20055;-60
2022/09/13 06:34:18;;;;;;;1.95;0.50;;;;;;;27.51;nan;98773.00;5090170;28;20063;-59
2022/09/13 06:36:43;;;;;;;1.58;0.50;;;;;;;27.49;nan;98779.03;5089970;28;20394;-58
2022/09/13 06:39:09;;;;;;;5.78;1.02;;;;;;;27.15;nan;98782.22;5089304;28;20040;-56
2022/09/13 06:41:36;;;;;;;5.35;1.00;;;;;;;26.85;nan;98783.97;5087517;28;20464;-59
2022/09/13 06:44:01;;;;;;;4.55;1.20;;;;;;;26.64;nan;98786.41;5090867;28;20044;-60
2022/09/13 06:46:29;;;;;;;2.00;0.88;;;;;;;26.54;nan;98785.41;5085127;28;20055;-57
2022/09/13 06:48:58;;;;;;;3.88;0.82;;;;;;;26.37;nan;98775.28;5090218;28;20036;-56
2022/09/13 06:51:24;;;;;;;2.92;0.68;;;;;;;26.07;nan;98765.75;5089372;28;20097;-59
2022/09/13 06:53:52;;;;;;;1.70;0.70;;;;;;;25.98;nan;98757.13;5095747;28;20485;-57
2022/09/13 06:56:27;;;;;;;2.55;0.82;;;;;;;26.02;nan;98763.47;5089079;28;20040;-59
2022/09/13 06:58:58;;;;;;;2.58;0.75;;;;;;;26.15;nan;98761.66;5089386;28;20043;-57
2022/09/13 07:01:32;;;;;;;5.15;1.38;;;;;;;25.90;nan;98762.03;5083237;28;20047;-57
2022/09/13 07:04:00;;;;;;;3.72;0.90;;;;;;;25.85;nan;98759.72;5087583;28;20043;-58
2022/09/13 07:06:28;;;;;;;6.03;0.88;;;;;;;25.98;nan;98769.13;5088493;28;20048;-57
2022/09/13 07:08:55;;;;;;;2.42;0.80;;;;;;;26.18;nan;98768.41;5089222;28;20040;-59
2022/09/13 07:11:24;;;;;;;3.70;1.13;;;;;;;26.15;nan;98774.84;5085676;28;20072;-57
2022/09/13 07:13:55;;;;;;;4.95;1.00;;;;;;;25.99;nan;98779.09;5088491;28;20041;-58
2022/09/13 07:16:24;;;;;;;5.22;1.08;;;;;;;25.86;nan;98772.53;5085154;28;20037;-59
2022/09/13 07:18:54;;;;;;;5.30;1.05;;;;;;;25.88;nan;98769.31;5088685;28;20142;-57
2022/09/13 07:21:21;;;;;;;4.88;0.90;;;;;;;26.02;nan;98771.88;5085204;28;20140;-61
2022/09/13 07:23:47;;;;;;;1.40;0.80;;;;;;;26.09;nan;98774.56;5086577;28;20044;-56
2022/09/13 07:26:12;;;;;;;2.05;0.82;;;;;;;26.04;nan;98775.03;5086410;28;20044;-61
2022/09/13 07:28:40;;;;;;;3.60;0.95;;;;;;;25.92;nan;98770.03;5087931;28;20091;-62
2022/09/13 07:31:19;;;;;;;2.50;0.90;;;;;;;25.87;nan;98765.72;5087703;28;20080;-56
2022/09/13 07:33:45;;;;;;;3.85;0.88;;;;;;;25.80;nan;98760.22;5075638;28;20040;-58
2022/09/13 07:36:12;;;;;;;3.38;0.85;;;;;;;25.77;nan;98761.84;5083474;28;20044;-56
2022/09/13 07:38:40;;;;;;;2.20;0.80;;;;;;;25.77;nan;98764.66;5085295;28;20481;-62
2022/09/13 07:41:11;;;;;;;1.65;0.73;;;;;;;25.76;nan;98765.88;5087890;28;20073;-56
2022/09/13 07:43:37;;;;;;;4.20;0.80;;;;;;;25.76;nan;98765.09;5086466;28;20055;-60
2022/09/13 07:46:30;;;;;;;2.20;0.82;;;;;;;25.70;nan;98763.94;5088133;28;20040;-58
2022/09/13 07:48:57;;;;;;;1.52;0.65;;;;;;;25.66;nan;98766.03;5082116;28;20396;-60
2022/09/13 07:51:33;;;;;;;2.03;0.80;;;;;;;25.62;nan;98768.88;5091698;28;20055;-57
2022/09/13 07:54:01;;;;;;;0.88;0.60;;;;;;;25.60;nan;98762.91;5091429;28;20044;-62
2022/09/13 07:56:29;;;;;;;2.40;0.70;;;;;;;25.57;nan;98757.34;5079764;28;20044;-57
2022/09/13 07:59:00;;;;;;;1.48;0.77;;;;;;;25.52;nan;98764.22;5085357;28;20571;-57
2022/09/13 08:01:33;;;;;;;1.80;0.80;;;;;;;25.56;nan;98759.34;5072741;28;20048;-57
2022/09/13 08:04:05;;;;;;;1.58;0.70;;;;;;;25.53;nan;98761.00;5098965;28;20048;-62
2022/09/13 08:06:32;;;;;;;2.63;0.70;;;;;;;25.52;nan;98758.63;5100927;28;20043;-56
2022/09/13 08:08:58;;;;;;;0.93;0.52;;;;;;;25.55;nan;98763.38;5090306;28;21709;-56
2022/09/13 08:11:28;;;;;;;1.77;0.77;;;;;;;25.70;nan;98763.94;5077331;28;20514;-60
2022/09/13 08:13:53;;;;;;;1.23;0.57;;;;;;;25.77;nan;98761.06;5077161;28;20046;-57
2022/09/13 08:16:21;;;;;;;2.55;0.70;;;;;;;25.87;nan;98765.72;5081855;28;20033;-59
2022/09/13 08:18:51;;;;;;;2.28;0.65;;;;;;;25.97;nan;98763.94;5082727;28;20052;-57
2022/09/13 08:21:17;;;;;;;1.35;0.60;;;;;;;26.06;nan;98762.16;5082205;28;20052;-58
2022/09/13 08:23:44;;;;;;;1.88;0.70;;;;;;;26.02;nan;98763.47;5090957;28;20096;-58
2022/09/13 08:26:10;;;;;;;1.67;0.60;;;;;;;25.75;nan;98767.09;5083218;28;20048;-57
2022/09/13 08:28:38;;;;;;;1.50;0.52;;;;;;;25.66;nan;98764.00;5086234;28;20071;-61
2022/09/13 08:31:06;;;;;;;1.13;0.70;;;;;;;25.76;nan;98757.47;5091585;28;20389;-63
2022/09/13 08:33:32;;;;;;;1.10;0.60;;;;;;;25.79;nan;98761.44;5086935;28;20536;-58
2022/09/13 08:35:58;;;;;;;1.25;0.50;;;;;;;25.62;nan;98768.88;5085577;28;20044;-60
2022/09/13 08:38:24;;;;;;;1.90;0.70;;;;;;;25.57;nan;98763.72;5095097;28;20040;-62
2022/09/13 08:40:55;;;;;;;1.25;0.60;;;;;;;25.73;nan;98761.13;5085757;28;20044;-58
2022/09/13 08:43:35;;;;;;;1.10;0.60;;;;;;;25.89;nan;98754.06;5087224;28;20461;-58
2022/09/13 08:46:12;;;;;;;1.10;0.50;;;;;;;25.75;nan;98758.69;5085248;28;20048;-60
2022/09/13 08:48:42;;;;;;;1.75;0.80;;;;;;;25.51;nan;98757.03;5088058;28;20032;-61
2022/09/13 08:51:28;;;;;;;3.08;0.70;;;;;;;25.69;nan;98756.75;5083062;28;20044;-61
2022/09/13 08:53:56;;;;;;;1.92;0.50;;;;;;;25.78;nan;98759.84;5090879;28;20307;-60
2022/09/13 08:56:56;;;;;;;1.27;0.50;;;;;;;25.68;nan;98767.16;5082816;28;20036;-57
2022/09/13 08:59:52;;;;;;;1.45;0.60;;;;;;;25.62;nan;98763.25;5072896;28;20407;-61
2022/09/13 09:02:29;;;;;;;0.98;0.60;;;;;;;25.80;nan;98771.44;5084411;28;20056;-57
2022/09/13 09:05:18;;;;;;;1.08;0.60;;;;;;;26.04;nan;98775.03;5078314;28;20052;-57
2022/09/13 09:08:12;;;;;;;0.68;0.50;;;;;;;26.26;nan;98778.25;5091800;28;20067;-57
2022/09/13 09:10:44;;;;;;;1.40;0.60;;;;;;;;;;5081750;28;20036;-56
2022/09/13 09:13:30;;;;;;;1.02;0.60;;;;;;;;;;5088829;28;20407;-57
2022/09/13 09:15:59;;;;;;;0.70;0.50;;;;;;;;;;5090174;28;20102;-57
2022/09/13 09:18:28;;;;;;;1.38;0.63;;;;;;;;;;5077074;28;20415;-57
2022/09/13 09:20:57;;;;;;;1.25;0.60;;;;;;;;;;5084205;28;20044;-61
2022/09/13 09:23:25;;;;;;;0.60;0.40;;;;;;;;;;5081464;28;20067;-57
2022/09/13 09:25:53;;;;;;;1.00;0.60;;;;;;;;;;5078799;28;20365;-61
2022/09/13 09:28:19;;;;;;;0.75;0.40;;;;;;;;;;5080917;28;20541;-57
2022/09/13 09:31:07;;;;;;;0.68;0.45;;;;;;;;;;5083703;28;20040;-57
2022/09/13 09:33:36;;;;;;;1.02;0.55;;;;;;;;;;5076175;28;20036;-61
2022/09/13 09:36:16;;;;;;;0.98;0.52;;;;;;;;;;5084787;28;20469;-61
2022/09/13 09:38:42;;;;;;;1.10;0.57;;;;;;;;;;5081617;28;20123;-57
2022/09/13 09:41:30;;;;;;;1.05;0.40;;;;;;;27.00;nan;98747.19;5090499;28;20082;-60
2022/09/13 09:44:01;;;;;;;1.40;0.60;;;;;;;27.11;nan;98750.59;5108007;28;20046;-61
2022/09/13 09:46:31;;;;;;;2.20;0.57;;;;;;;25.07;nan;98419.47;5079454;28;20058;-57
2022/09/13 09:50:07;;;;;;;2.60;0.60;;;;;;;27.18;nan;98744.06;5103470;28;20164;-57
2022/09/13 09:51:58;;;;;;;2.25;0.52;;;;;;;27.19;nan;98740.81;5104442;28;20031;-57
2022/09/13 09:54:26;;;;;;;2.42;0.45;;;;;;;27.17;nan;98731.25;5105515;28;20534;-57
2022/09/13 09:56:53;;;;;;;1.52;0.68;;;;;;;27.16;nan;98727.66;5107802;28;20114;-62
2022/09/13 09:59:30;;;;;;;2.53;0.60;;;;;;;;;;5112056;28;20047;-57
2022/09/13 10:01:57;;;;;;;3.92;0.75;;;;;;;27.07;nan;98735.84;5098307;28;20113;-61
2022/09/13 10:04:24;;;;;;;2.13;0.75;;;;;;;26.92;nan;98720.50;5096000;28;20403;-61
2022/09/13 10:06:50;;;;;;;0.95;0.60;;;;;;;27.02;nan;98727.94;5102947;28;20039;-62
2022/09/13 10:09:20;;;;;;;3.97;1.33;;;;;;;27.07;nan;98736.63;5099601;28;20048;-63
2022/09/13 10:11:52;;;;;;;2.70;0.70;;;;;;;27.13;nan;98726.47;5108164;28;20503;-61
2022/09/13 10:14:33;;;;;;;1.42;0.77;;;;;;;27.13;nan;98728.50;5108764;28;20085;-61
2022/09/13 10:17:22;;;;;;;1.92;0.60;;;;;;;26.97;nan;98726.41;5107004;28;20058;-62
2022/09/13 10:19:53;;;;;;;2.63;0.82;;;;;;;27.02;nan;98722.31;5099879;28;20043;-58
2022/09/13 10:22:19;;;;;;;2.03;0.73;;;;;;;26.27;nan;98601.19;5105687;28;20384;-61
2022/09/13 10:24:44;;;;;;;6.75;0.80;;;;;;;;;;5109339;28;20039;-60
2022/09/13 10:27:22;;;;;;;4.53;0.83;;;;;;;27.07;nan;98719.00;5109987;28;20052;-61
2022/09/13 10:29:51;;;;;;;2.85;0.60;;;;;;;26.28;nan;98616.78;5109434;28;20274;-58
2022/09/13 10:32:18;;;;;;;2.22;0.88;;;;;;;27.06;nan;98720.22;5109987;28;20039;-57
2022/09/13 10:34:45;;;;;;;1.58;0.73;;;;;;;27.12;nan;98721.31;5109419;28;20040;-61
2022/09/13 10:37:16;;;;;;;3.85;0.80;;;;;;;27.21;nan;98726.31;5109957;28;20392;-60
2022/09/13 10:39:57;;;;;;;3.25;0.75;;;;;;;27.13;nan;98720.06;5109070;28;20063;-58
2022/09/13 10:42:25;;;;;;;5.35;0.90;;;;;;;27.02;nan;98727.94;5109242;28;20135;-61
2022/09/13 10:45:04;;;;;;;2.15;0.80;;;;;;;27.10;nan;98715.34;5109444;28;20036;-58
2022/09/13 10:47:52;;;;;;;4.68;0.75;;;;;;;27.17;nan;98701.16;5105675;28;20039;-58
2022/09/13 10:50:30;;;;;;;3.30;0.70;;;;;;;27.19;nan;98697.91;5101845;28;20048;-59
2022/09/13 10:53:00;;;;;;;1.35;0.60;;;;;;;27.02;nan;98713.91;5107263;28;20048;-58
2022/09/13 10:55:28;;;;;;;1.17;0.68;;;;;;;26.97;nan;98705.97;5100272;28;20046;-59
2022/09/13 10:58:15;;;;;;;1.80;0.80;;;;;;;27.04;nan;98692.59;5104028;28;20043;-58
2022/09/13 11:00:59;;;;;;;2.13;0.90;;;;;;;;;;5089631;28;20039;-62
2022/09/13 11:03:37;;;;;;;3.00;0.70;;;;;;;;;;5092492;28;20040;-58
2022/09/13 11:06:14;;;;;;;1.02;0.65;;;;;;;27.22;nan;98680.16;5114506;28;20027;-58
2022/09/13 11:08:46;;;;;;;1.38;0.70;;;;;;;27.12;nan;98693.22;5107993;28;20074;-58
2022/09/13 11:11:26;;;;;;;2.63;0.70;;;;;;;27.11;nan;98683.22;5098387;28;20035;-64
2022/09/13 11:14:26;;;;;;;3.55;0.80;;;;;;;27.18;nan;98679.47;5099759;28;20051;-64
2022/09/13 11:17:06;;;;;;;1.70;0.80;;;;;;;27.17;nan;98689.13;5111976;28;20101;-59
2022/09/13 11:19:44;;;;;;;1.38;0.73;;;;;;;27.07;nan;98683.31;5102057;28;20249;-56
2022/09/13 11:22:26;;;;;;;2.22;0.80;;;;;;;27.11;nan;98681.22;5103442;28;20428;-59
2022/09/13 11:24:57;;;;;;;2.58;0.80;;;;;;;25.86;nan;98467.16;5103726;28;20032;-58
2022/09/13 11:27:50;;;;;;;3.30;0.77;;;;;;;27.17;nan;98670.25;5108788;28;20043;-59
2022/09/13 11:30:20;;;;;;;1.35;0.82;;;;;;;27.04;nan;98674.94;5100301;28;20044;-59
2022/09/13 11:33:17;;;;;;;1.27;0.57;;;;;;;27.11;nan;98674.81;5101383;28;20048;-63
2022/09/13 11:35:57;;;;;;;2.13;0.80;;;;;;;27.15;nan;98667.13;5097518;28;20049;-63
2022/09/13 11:38:25;;;;;;;3.03;0.60;;;;;;;27.07;nan;98665.66;5100521;28;20568;-65
2022/09/13 11:41:04;;;;;;;1.27;0.63;;;;;;;27.44;nan;98714.97;5101462;28;20055;-65
2022/09/13 11:43:51;;;;;;;1.90;0.70;;;;;;;27.18;nan;98657.00;5099752;28;20035;-63
2022/09/13 11:46:46;;;;;;;1.33;0.65;;;;;;;27.15;nan;98653.06;5099302;28;20036;-57
2022/09/13 11:49:40;;;;;;;1.38;0.73;;;;;;;27.06;nan;98652.88;5098690;28;20583;-64
2022/09/13 11:52:28;;;;;;;1.08;0.50;;;;;;;27.12;nan;98654.72;5081779;28;20461;-58
2022/09/13 11:54:53;;;;;;;0.98;0.60;;;;;;;27.22;nan;98655.72;5104129;28;20059;-58
2022/09/13 11:57:50;;;;;;;1.00;0.50;;;;;;;27.49;nan;98683.53;5100165;28;20048;-57
2022/09/13 12:00:19;;;;;;;2.13;0.50;;;;;;;27.06;nan;98631.19;5078341;28;20499;-58
2022/09/13 12:02:56;;;;;;;0.85;0.60;;;;;;;27.08;nan;98639.22;5100717;28;20047;-58
2022/09/13 12:05:26;;;;;;;2.00;0.60;;;;;;;27.21;nan;98640.06;5099999;28;20035;-58
2022/09/13 12:08:01;;;;;;;1.48;0.63;;;;;;;27.08;nan;98627.97;5102153;28;20095;-63
2022/09/13 12:10:29;;;;;;;1.45;0.70;;;;;;;;;;5089339;28;20047;-57
2022/09/13 12:12:56;;;;;;;1.08;0.65;;;;;;;;;;5094486;28;20408;-58
2022/09/13 12:15:38;;;;;;;0.80;0.43;;;;;;;;;;5106310;28;20084;-57
2022/09/13 12:18:04;;;;;;;;;;;;;;;;;;5096045;28;20035;-64
2022/09/13 12:20:36;;;;;;;2.65;0.70;;;;;;;27.21;nan;98617.63;5093649;28;19916;-65
2022/09/13 12:23:08;;;;;;;1.27;0.70;;;;;;;27.19;nan;98619.28;5109080;28;20058;-58